Time;durP1;ratioP1;P1;durP2;ratioP2;P2;SDS_P1;SDS_P2;PMS_P1;PMS_P2;Temp;Humidity;BMP_temperature;BMP_pressure;BME280_temperature;BME280_humidity;BME280_pressure;Samples;Min_cycle;Max_cycle;Signal;HPM_P1;HPM_P2
2022/01/11 00:00:30;;;;;;;2.93;2.83;;;0.20;99.90;;;;;;5057655;28;20287;-72
2022/01/11 00:02:56;;;;;;;3.80;3.63;;;0.30;99.90;;;;;;5039644;28;20267;-73
2022/01/11 00:05:28;;;;;;;2.83;2.73;;;0.20;99.90;;;;;;5057138;28;20238;-72
2022/01/11 00:07:55;;;;;;;4.50;4.20;;;0.20;99.90;;;;;;5056999;28;20208;-74
2022/01/11 00:10:27;;;;;;;6.20;5.77;;;0.10;99.90;;;;;;5057518;28;20212;-72
2022/01/11 00:12:54;;;;;;;0.77;0.77;;;0.10;99.90;;;;;;5057356;28;20298;-73
2022/01/11 00:15:20;;;;;;;10.27;7.20;;;0.10;99.90;;;;;;5062074;28;20196;-74
2022/01/11 00:17:46;;;;;;;5.50;5.13;;;0.10;99.90;;;;;;5040862;28;20177;-73
2022/01/11 00:20:15;;;;;;;3.50;3.33;;;0.10;99.90;;;;;;5057012;28;20201;-73
2022/01/11 00:24:26;;;;;;;8.70;6.37;;;0.10;99.90;;;;;;5038074;28;20655;-74
2022/01/11 00:25:32;;;;;;;5.17;4.87;;;0.10;99.90;;;;;;5057292;28;20655;-73
2022/01/11 00:27:59;;;;;;;5.67;5.17;;;0.00;99.90;;;;;;5039694;28;20796;-73
2022/01/11 00:30:32;;;;;;;6.27;4.07;;;0.00;99.90;;;;;;5039294;28;20212;-74
2022/01/11 00:33:01;;;;;;;4.93;3.40;;;0.00;99.90;;;;;;5039363;28;20192;-73
2022/01/11 00:35:38;;;;;;;2.10;2.00;;;0.00;99.90;;;;;;5057534;28;20213;-73
2022/01/11 00:38:04;;;;;;;9.13;5.13;;;-0.10;99.90;;;;;;5040070;28;20185;-74
2022/01/11 00:40:30;;;;;;;3.00;2.47;;;-0.10;99.90;;;;;;5057696;28;20200;-74
2022/01/11 00:42:59;;;;;;;2.83;2.60;;;-0.10;99.90;;;;;;5038700;28;20237;-74
2022/01/11 00:45:26;;;;;;;5.63;4.10;;;-0.20;99.90;;;;;;5056919;28;20180;-74
2022/01/11 00:47:53;;;;;;;2.87;2.70;;;-0.20;99.90;;;;;;5056537;28;20231;-74
2022/01/11 00:50:18;;;;;;;2.80;2.60;;;-0.20;99.90;;;;;;5079730;22;21401;-72
2022/01/11 00:52:44;;;;;;;2.63;2.43;;;-0.20;99.90;;;;;;5059395;28;20231;-72
2022/01/11 00:55:10;;;;;;;3.30;2.77;;;-0.10;99.90;;;;;;5053085;28;20295;-72
2022/01/11 00:57:35;;;;;;;6.27;5.17;;;-0.20;99.90;;;;;;5053143;28;20595;-71
2022/01/11 01:00:04;;;;;;;2.33;2.13;;;-0.20;99.90;;;;;;5053261;28;20165;-72
2022/01/11 01:02:29;;;;;;;3.10;2.90;;;-0.10;99.90;;;;;;5052853;28;20178;-72
2022/01/11 01:04:55;;;;;;;7.93;3.60;;;-0.10;99.90;;;;;;5042446;28;20184;-72
2022/01/11 01:07:20;;;;;;;27.67;7.30;;;-0.10;99.90;;;;;;5059471;28;20454;-72
2022/01/11 01:10:00;;;;;;;4.97;4.50;;;0.00;99.90;;;;;;5053298;28;20180;-72
2022/01/11 01:12:25;;;;;;;5.83;3.17;;;-0.10;99.90;;;;;;5065818;28;20644;-72
2022/01/11 01:14:51;;;;;;;1.27;1.27;;;0.00;99.90;;;;;;5053050;28;20205;-72
2022/01/11 01:17:17;;;;;;;4.30;3.03;;;0.00;99.90;;;;;;5052804;28;20540;-72
2022/01/11 01:19:42;;;;;;;9.33;8.73;;;0.00;99.90;;;;;;5053061;28;20255;-72
2022/01/11 01:22:08;;;;;;;12.87;7.37;;;0.00;99.90;;;;;;5052634;28;20189;-72
2022/01/11 01:24:33;;;;;;;6.93;5.73;;;0.10;99.90;;;;;;5035164;28;20184;-72
2022/01/11 01:26:59;;;;;;;2.20;2.10;;;0.00;99.90;;;;;;5052861;28;20185;-72
2022/01/11 01:29:25;;;;;;;4.83;4.43;;;0.00;99.90;;;;;;5052781;28;20181;-72
2022/01/11 01:31:51;;;;;;;5.73;5.23;;;0.00;99.90;;;;;;5052135;28;20576;-72
2022/01/11 01:34:17;;;;;;;1.90;1.90;;;0.00;99.90;;;;;;5052636;28;20205;-72
2022/01/11 01:36:43;;;;;;;5.00;4.63;;;0.00;99.90;;;;;;5052763;28;20204;-72
2022/01/11 01:39:08;;;;;;;10.57;6.90;;;0.00;99.90;;;;;;5052672;28;20725;-71
2022/01/11 01:41:34;;;;;;;5.80;5.50;;;0.00;99.90;;;;;;5052375;28;20323;-71
2022/01/11 01:44:02;;;;;;;4.43;4.03;;;0.00;99.90;;;;;;5034931;28;20244;-71
2022/01/11 01:46:28;;;;;;;2.83;2.73;;;0.00;99.90;;;;;;5052254;28;20247;-71
2022/01/11 01:48:56;;;;;;;1.30;1.27;;;0.00;99.90;;;;;;5052515;28;20582;-72
2022/01/11 01:51:22;;;;;;;8.83;7.07;;;0.10;99.90;;;;;;5051868;28;20304;-71
2022/01/11 01:53:49;;;;;;;3.90;3.67;;;0.10;99.90;;;;;;5034373;28;20363;-71
2022/01/11 01:56:16;;;;;;;4.13;3.90;;;0.10;99.90;;;;;;5052306;28;20177;-71
2022/01/11 01:58:42;;;;;;;6.27;5.53;;;0.10;99.90;;;;;;5052128;28;20165;-71
2022/01/11 02:01:08;;;;;;;1.13;1.13;;;0.10;99.90;;;;;;5051945;28;20197;-71
2022/01/11 02:03:38;;;;;;;16.07;6.30;;;0.00;99.90;;;;;;5051817;28;20216;-71
2022/01/11 02:06:10;;;;;;;6.33;5.93;;;0.00;99.90;;;;;;5065497;28;20204;-71
2022/01/11 02:08:38;;;;;;;4.83;4.00;;;0.10;99.90;;;;;;5034144;28;20235;-71
2022/01/11 02:11:05;;;;;;;2.13;2.03;;;0.10;99.90;;;;;;5055001;28;20201;-71
2022/01/11 02:13:31;;;;;;;3.83;3.37;;;0.10;99.90;;;;;;5060215;28;20247;-71
2022/01/11 02:15:57;;;;;;;4.53;4.23;;;0.10;99.90;;;;;;5051785;28;20280;-71
2022/01/11 02:18:26;;;;;;;10.97;7.07;;;0.00;99.90;;;;;;5052029;28;20185;-71
2022/01/11 02:20:55;;;;;;;6.33;3.97;;;0.00;99.90;;;;;;5033719;28;20648;-71
2022/01/11 02:23:22;;;;;;;3.07;2.83;;;0.00;99.90;;;;;;5051534;28;20188;-71
2022/01/11 02:25:48;;;;;;;7.80;7.13;;;0.00;99.90;;;;;;5051566;28;20234;-71
2022/01/11 02:28:17;;;;;;;2.27;2.17;;;0.00;99.90;;;;;;5051592;28;20177;-71
2022/01/11 02:30:43;;;;;;;8.97;8.20;;;0.00;99.90;;;;;;5051481;28;20211;-71
2022/01/11 02:33:20;;;;;;;10.00;5.70;;;0.00;99.90;;;;;;5051312;28;20311;-71
2022/01/11 02:35:50;;;;;;;9.50;8.50;;;0.00;99.90;;;;;;5051456;28;20747;-71
2022/01/11 02:38:16;;;;;;;13.13;8.13;;;0.00;99.90;;;;;;5051370;28;20213;-71
2022/01/11 02:40:43;;;;;;;10.83;8.67;;;0.00;99.90;;;;;;5051242;28;20247;-71
2022/01/11 02:43:08;;;;;;;8.80;8.03;;;0.00;99.90;;;;;;5051257;28;20177;-72
2022/01/11 02:45:34;;;;;;;8.17;4.90;;;-0.10;99.90;;;;;;5033496;28;20189;-71
2022/01/11 02:48:00;;;;;;;1.47;1.47;;;-0.10;99.90;;;;;;5051261;28;20208;-72
2022/01/11 02:50:25;;;;;;;3.83;3.67;;;-0.10;99.90;;;;;;5047024;28;20218;-72
2022/01/11 02:52:51;;;;;;;4.93;4.53;;;-0.10;99.90;;;;;;5031029;28;20181;-72
2022/01/11 02:55:17;;;;;;;3.83;3.53;;;-0.10;99.90;;;;;;5031379;28;20888;-72
2022/01/11 02:57:44;;;;;;;8.20;6.87;;;-0.20;99.90;;;;;;5031226;28;20178;-72
2022/01/11 03:00:14;;;;;;;5.80;3.67;;;-0.20;99.90;;;;;;5031186;28;20657;-72
2022/01/11 03:02:39;;;;;;;4.73;4.37;;;-0.20;99.90;;;;;;5031011;28;20538;-72
2022/01/11 03:05:08;;;;;;;9.03;2.40;;;-0.20;99.90;;;;;;5039514;28;20262;-72
2022/01/11 03:07:33;;;;;;;14.27;5.17;;;-0.20;99.90;;;;;;5035507;28;20261;-72
2022/01/11 03:10:12;;;;;;;3.27;3.17;;;-0.20;99.90;;;;;;5031018;28;20720;-71
2022/01/11 03:12:40;;;;;;;8.83;3.57;;;-0.20;99.90;;;;;;5044187;28;20588;-72
2022/01/11 03:15:06;;;;;;;4.17;3.00;;;-0.30;99.90;;;;;;5031097;28;20189;-72
2022/01/11 03:17:31;;;;;;;2.80;2.60;;;-0.30;99.90;;;;;;5030969;28;20185;-72
2022/01/11 03:19:57;;;;;;;3.80;2.57;;;-0.30;99.90;;;;;;5031012;28;20170;-71
2022/01/11 03:22:22;;;;;;;1.30;1.30;;;-0.40;99.90;;;;;;5032210;28;20727;-72
2022/01/11 03:24:48;;;;;;;9.47;4.60;;;-0.40;99.90;;;;;;5035245;28;20674;-72
2022/01/11 03:27:14;;;;;;;5.37;5.03;;;-0.40;99.90;;;;;;5035099;28;20683;-72
2022/01/11 03:29:40;;;;;;;7.30;6.80;;;-0.40;99.90;;;;;;5035060;28;20190;-72
2022/01/11 03:32:06;;;;;;;9.50;3.03;;;-0.40;99.90;;;;;;5034746;28;20205;-72
2022/01/11 03:34:32;;;;;;;4.13;3.33;;;-0.30;99.90;;;;;;5017041;28;20636;-72
2022/01/11 03:36:58;;;;;;;8.27;2.90;;;-0.40;99.90;;;;;;5017046;28;20205;-72
2022/01/11 03:39:24;;;;;;;5.23;4.90;;;-0.50;99.90;;;;;;5035059;28;20192;-72
2022/01/11 03:41:50;;;;;;;3.90;3.70;;;-0.50;99.90;;;;;;5034419;28;20256;-72
2022/01/11 03:44:15;;;;;;;10.60;6.57;;;-0.50;99.90;;;;;;5034901;28;20186;-71
2022/01/11 03:46:41;;;;;;;25.00;5.63;;;-0.50;99.90;;;;;;5034681;28;20178;-72
2022/01/11 03:49:06;;;;;;;4.67;4.40;;;-0.60;99.90;;;;;;5034641;28;20182;-72
2022/01/11 03:51:35;;;;;;;6.73;5.17;;;-0.60;99.90;;;;;;5034845;28;20228;-72
2022/01/11 03:54:08;;;;;;;2.77;2.63;;;-0.60;99.90;;;;;;5034536;28;20184;-71
2022/01/11 03:56:34;;;;;;;5.03;4.63;;;-0.50;99.90;;;;;;5034514;28;20178;-71
2022/01/11 03:59:06;;;;;;;5.20;2.27;;;-0.50;99.90;;;;;;5034551;28;20181;-71
2022/01/11 04:01:32;;;;;;;11.33;7.60;;;-0.50;99.90;;;;;;5034051;28;20550;-71
2022/01/11 04:03:57;;;;;;;2.10;2.10;;;-0.50;99.90;;;;;;5034427;28;20227;-71
2022/01/11 04:06:25;;;;;;;9.43;5.73;;;-0.50;99.90;;;;;;5043527;28;20716;-72
2022/01/11 04:08:51;;;;;;;4.23;4.03;;;-0.50;99.90;;;;;;5034491;28;20192;-72
2022/01/11 04:11:17;;;;;;;3.60;3.40;;;-0.50;99.90;;;;;;5039554;28;20687;-72
2022/01/11 04:13:43;;;;;;;7.43;3.10;;;-0.50;99.90;;;;;;5041451;28;20174;-72
2022/01/11 04:16:09;;;;;;;4.53;4.33;;;-0.50;99.90;;;;;;5016560;28;20587;-72
2022/01/11 04:18:35;;;;;;;5.43;5.00;;;-0.60;99.90;;;;;;5033966;28;20185;-72
2022/01/11 04:21:01;;;;;;;1.83;1.73;;;-0.70;99.90;;;;;;5034182;28;20244;-73
2022/01/11 04:23:27;;;;;;;3.90;3.63;;;-0.70;99.90;;;;;;5034063;28;20192;-73
2022/01/11 04:25:53;;;;;;;5.60;5.20;;;-0.70;99.90;;;;;;5034088;28;20547;-72
2022/01/11 04:28:18;;;;;;;10.13;8.60;;;-0.70;99.90;;;;;;5016321;28;20181;-72
2022/01/11 04:30:44;;;;;;;2.40;2.30;;;-0.70;99.90;;;;;;5033870;28;20292;-72
2022/01/11 04:33:10;;;;;;;2.63;2.43;;;-0.70;99.90;;;;;;5032987;28;20193;-72
2022/01/11 04:35:35;;;;;;;2.77;2.67;;;-0.70;99.90;;;;;;5033778;28;20209;-72
2022/01/11 04:38:01;;;;;;;6.90;5.17;;;-0.70;99.90;;;;;;5033996;28;20197;-72
2022/01/11 04:40:26;;;;;;;3.37;3.17;;;-0.70;99.90;;;;;;5033896;28;20247;-72
2022/01/11 04:42:52;;;;;;;10.63;4.37;;;-0.80;99.90;;;;;;5033507;28;20173;-72
2022/01/11 04:45:18;;;;;;;13.03;7.17;;;-0.80;99.90;;;;;;5015998;28;20178;-72
2022/01/11 04:47:45;;;;;;;2.13;2.03;;;-0.80;99.90;;;;;;5033479;28;20170;-72
2022/01/11 04:50:11;;;;;;;2.00;1.90;;;-0.80;99.90;;;;;;5033476;28;20653;-72
2022/01/11 04:52:37;;;;;;;1.13;1.13;;;-0.80;99.90;;;;;;5033360;28;20190;-72
2022/01/11 04:55:04;;;;;;;1.10;1.10;;;-0.80;99.90;;;;;;5033528;28;20212;-71
2022/01/11 04:57:30;;;;;;;2.23;2.20;;;-0.80;99.90;;;;;;5015855;28;20173;-72
2022/01/11 04:59:55;;;;;;;3.30;3.10;;;-0.90;99.90;;;;;;5033283;28;20177;-71
2022/01/11 05:02:21;;;;;;;3.70;3.50;;;-0.80;99.90;;;;;;5033075;28;20178;-72
2022/01/11 05:04:46;;;;;;;4.63;3.80;;;-0.80;99.90;;;;;;5039219;28;20188;-72
2022/01/11 05:07:12;;;;;;;4.90;4.53;;;-0.80;99.90;;;;;;5040968;28;20178;-72
2022/01/11 05:09:38;;;;;;;5.37;4.97;;;-0.80;99.90;;;;;;5033441;28;20272;-72
2022/01/11 05:12:03;;;;;;;2.60;2.50;;;-0.80;99.90;;;;;;5044950;28;20201;-72
2022/01/11 05:14:29;;;;;;;1.37;1.27;;;-0.80;99.90;;;;;;5016238;28;20208;-72
2022/01/11 05:16:54;;;;;;;3.53;3.40;;;-0.80;99.90;;;;;;5033361;28;20661;-72
2022/01/11 05:19:20;;;;;;;5.80;5.40;;;-0.80;99.90;;;;;;5034442;28;20174;-72
2022/01/11 05:21:46;;;;;;;0.73;0.73;;;-0.80;99.90;;;;;;5032966;28;20283;-72
2022/01/11 05:24:12;;;;;;;0.70;0.70;;;-0.90;99.90;;;;;;5033007;28;20740;-72
2022/01/11 05:26:38;;;;;;;5.93;1.97;;;-0.90;99.90;;;;;;5015225;28;20194;-72
2022/01/11 05:29:04;;;;;;;2.73;2.53;;;-0.90;99.90;;;;;;5033739;28;20189;-71
2022/01/11 05:31:32;;;;;;;0.50;0.50;;;-0.80;99.90;;;;;;5033170;28;20205;-72
2022/01/11 05:33:57;;;;;;;1.40;1.40;;;-0.70;99.90;;;;;;5033406;28;20239;-72
2022/01/11 05:36:23;;;;;;;6.20;5.73;;;-0.70;99.90;;;;;;5032991;28;20660;-72
2022/01/11 05:38:48;;;;;;;1.60;1.60;;;-0.70;99.90;;;;;;5032800;28;20640;-71
2022/01/11 05:41:14;;;;;;;4.43;4.07;;;-0.70;99.90;;;;;;5032836;28;20201;-72
2022/01/11 05:43:39;;;;;;;5.37;4.93;;;-0.70;99.90;;;;;;5032329;28;20182;-72
2022/01/11 05:46:06;;;;;;;23.63;4.57;;;-0.70;99.90;;;;;;5031771;28;20181;-72
2022/01/11 05:48:32;;;;;;;1.90;1.90;;;-0.70;99.90;;;;;;5033425;28;20232;-72
2022/01/11 05:51:01;;;;;;;4.17;3.87;;;-0.70;99.90;;;;;;5014558;28;20217;-72
2022/01/11 05:53:27;;;;;;;2.50;2.00;;;-0.60;99.90;;;;;;5033262;28;20190;-72
2022/01/11 05:55:52;;;;;;;5.00;2.87;;;-0.60;99.90;;;;;;5032908;28;20208;-71
2022/01/11 05:58:18;;;;;;;4.50;4.30;;;-0.60;99.90;;;;;;5032137;28;20212;-73
2022/01/11 06:00:43;;;;;;;3.87;3.67;;;-0.60;99.90;;;;;;5032369;28;20280;-73
2022/01/11 06:03:09;;;;;;;8.13;3.70;;;-0.60;99.90;;;;;;5011458;28;20851;-70
2022/01/11 06:05:38;;;;;;;1.63;1.53;;;-0.70;99.90;;;;;;5037565;28;20608;-72
2022/01/11 06:08:05;;;;;;;4.50;3.33;;;-0.70;99.90;;;;;;5047946;28;20183;-72
2022/01/11 06:10:31;;;;;;;5.00;4.60;;;-0.70;99.90;;;;;;5051842;28;20209;-73
2022/01/11 06:12:57;;;;;;;3.30;2.83;;;-0.70;99.90;;;;;;5045740;28;20199;-72
2022/01/11 06:15:23;;;;;;;1.90;1.80;;;-0.60;99.90;;;;;;5032616;28;20213;-73
2022/01/11 06:17:48;;;;;;;7.33;1.90;;;-0.60;99.90;;;;;;5031922;28;20182;-72
2022/01/11 06:20:14;;;;;;;2.07;1.97;;;-0.60;99.90;;;;;;5031651;28;20660;-72
2022/01/11 06:22:39;;;;;;;3.57;3.40;;;-0.60;99.90;;;;;;5031485;28;20205;-73
2022/01/11 06:25:06;;;;;;;0.33;0.33;;;-0.70;99.90;;;;;;5031228;28;20695;-72
2022/01/11 06:27:33;;;;;;;5.93;3.83;;;-0.70;99.90;;;;;;5031234;28;20180;-72
2022/01/11 06:29:58;;;;;;;3.40;2.67;;;-0.60;99.90;;;;;;5031394;28;20261;-72
2022/01/11 06:32:24;;;;;;;4.00;1.63;;;-0.70;99.90;;;;;;5031130;28;20287;-72
2022/01/11 06:34:52;;;;;;;3.53;3.20;;;-0.70;99.90;;;;;;5031397;28;20193;-72
2022/01/11 06:37:17;;;;;;;1.47;1.40;;;-0.70;99.90;;;;;;5031202;28;20208;-72
2022/01/11 06:39:43;;;;;;;4.23;4.03;;;-0.80;99.90;;;;;;5031297;28;20207;-71
2022/01/11 06:42:09;;;;;;;4.20;2.87;;;-0.70;99.90;;;;;;5031100;28;20194;-72
2022/01/11 06:44:34;;;;;;;1.47;1.47;;;-0.70;99.90;;;;;;5031314;28;20177;-73
2022/01/11 06:47:00;;;;;;;3.20;1.83;;;-0.60;99.90;;;;;;5012931;28;20264;-72
2022/01/11 06:49:25;;;;;;;3.43;3.13;;;-0.60;99.90;;;;;;5013418;28;20185;-73
2022/01/11 06:51:51;;;;;;;3.20;3.10;;;-0.60;99.90;;;;;;5098529;22;20723;-74
2022/01/11 06:54:17;;;;;;;3.77;3.47;;;-0.70;99.90;;;;;;5036255;28;20228;-74
2022/01/11 06:56:43;;;;;;;5.67;2.47;;;-0.60;99.90;;;;;;5054925;28;20188;-74
2022/01/11 06:59:08;;;;;;;4.03;3.77;;;-0.60;99.90;;;;;;5056671;28;20525;-73
2022/01/11 07:01:34;;;;;;;1.47;1.47;;;-0.70;99.90;;;;;;5056610;28;20203;-74
2022/01/11 07:04:00;;;;;;;3.83;3.60;;;-0.60;99.90;;;;;;5057672;28;20179;-73
2022/01/11 07:06:26;;;;;;;5.37;4.87;;;-0.70;99.90;;;;;;5068842;28;20701;-73
2022/01/11 07:08:51;;;;;;;10.10;6.60;;;-0.70;99.90;;;;;;5054446;28;20189;-74
2022/01/11 07:11:18;;;;;;;1.70;1.70;;;-0.80;99.90;;;;;;5042236;28;20294;-72
2022/01/11 07:13:44;;;;;;;0.53;0.53;;;-0.80;99.90;;;;;;5044584;28;20209;-74
2022/01/11 07:16:10;;;;;;;7.07;3.27;;;-0.80;99.90;;;;;;5055210;28;20709;-73
2022/01/11 07:18:35;;;;;;;10.93;7.93;;;-0.80;99.90;;;;;;5055161;28;20259;-74
2022/01/11 07:21:01;;;;;;;2.20;2.10;;;-0.80;99.90;;;;;;5054476;28;20275;-74
2022/01/11 07:23:26;;;;;;;4.90;3.90;;;-0.80;99.90;;;;;;5036449;28;20185;-73
2022/01/11 07:25:52;;;;;;;13.50;4.27;;;-0.70;99.90;;;;;;5055321;28;20215;-73
2022/01/11 07:28:18;;;;;;;5.23;4.73;;;-0.80;99.90;;;;;;5038239;28;20189;-73
2022/01/11 07:30:44;;;;;;;2.07;1.33;;;-0.90;99.90;;;;;;5055308;28;20640;-74
2022/01/11 07:33:09;;;;;;;2.30;2.20;;;-0.80;99.90;;;;;;5036477;28;20670;-74
2022/01/11 07:35:35;;;;;;;5.93;5.53;;;-0.70;99.90;;;;;;5036792;28;20213;-74
2022/01/11 07:38:01;;;;;;;3.53;3.23;;;-0.70;99.90;;;;;;5054107;28;20543;-74
2022/01/11 07:40:26;;;;;;;3.40;3.17;;;-0.60;99.90;;;;;;5054535;28;20181;-74
2022/01/11 07:42:52;;;;;;;4.10;3.77;;;-0.60;99.90;;;;;;5037064;28;20228;-74
2022/01/11 07:45:18;;;;;;;3.33;3.13;;;-0.60;99.90;;;;;;5055390;28;20203;-74
2022/01/11 07:47:43;;;;;;;4.53;4.33;;;-0.70;99.90;;;;;;5037520;28;20279;-74
2022/01/11 07:50:10;;;;;;;2.53;2.43;;;-0.70;99.90;;;;;;5054880;28;20184;-73
2022/01/11 07:52:35;;;;;;;3.93;3.70;;;-0.70;99.90;;;;;;5056444;28;20230;-74
2022/01/11 07:55:01;;;;;;;4.10;3.73;;;-0.70;99.90;;;;;;5056517;28;20224;-72
2022/01/11 07:57:27;;;;;;;3.43;2.07;;;-0.80;99.90;;;;;;5038831;28;20181;-72
2022/01/11 07:59:53;;;;;;;3.87;3.57;;;-0.80;99.90;;;;;;5058398;28;20176;-72
2022/01/11 08:02:19;;;;;;;4.23;4.00;;;-0.70;99.90;;;;;;5039702;28;20718;-73
2022/01/11 08:04:45;;;;;;;7.10;2.80;;;-0.70;99.90;;;;;;5067520;28;20181;-73
2022/01/11 08:07:11;;;;;;;1.67;1.60;;;-0.70;99.90;;;;;;5058651;28;20246;-73
2022/01/11 08:09:36;;;;;;;12.80;5.10;;;-0.70;99.90;;;;;;5057603;28;20180;-73
2022/01/11 08:12:02;;;;;;;2.67;2.57;;;-0.70;99.90;;;;;;5069174;28;20271;-73
2022/01/11 08:14:29;;;;;;;5.30;4.27;;;-0.70;99.90;;;;;;5057872;28;20654;-73
2022/01/11 08:16:55;;;;;;;1.27;1.27;;;-0.70;99.90;;;;;;5057166;28;20176;-73
2022/01/11 08:19:27;;;;;;;3.90;3.73;;;-0.70;99.90;;;;;;5057436;28;20173;-73
2022/01/11 08:21:54;;;;;;;2.90;2.80;;;-0.70;99.90;;;;;;5058440;28;20193;-74
2022/01/11 08:24:23;;;;;;;9.03;6.03;;;-0.80;99.90;;;;;;5057738;28;20181;-74
2022/01/11 08:26:50;;;;;;;3.03;2.83;;;-0.70;99.90;;;;;;5056640;28;20185;-73
2022/01/11 08:29:18;;;;;;;1.03;1.03;;;-0.70;99.90;;;;;;5056541;28;20177;-73
2022/01/11 08:31:45;;;;;;;6.10;4.13;;;-0.60;99.90;;;;;;5054428;28;20257;-73
2022/01/11 08:34:13;;;;;;;9.93;7.30;;;-0.60;99.90;;;;;;5076890;28;20647;-73
2022/01/11 08:36:40;;;;;;;8.57;7.77;;;-0.70;99.90;;;;;;5078131;28;20272;-72
2022/01/11 08:39:05;;;;;;;4.43;4.17;;;-0.60;99.90;;;;;;5078588;28;20169;-73
2022/01/11 08:41:31;;;;;;;9.33;3.43;;;-0.60;99.90;;;;;;5066694;28;20231;-74
2022/01/11 08:43:57;;;;;;;3.83;3.63;;;-0.70;99.90;;;;;;5087905;28;20177;-73
2022/01/11 08:46:23;;;;;;;5.67;5.20;;;-0.60;99.90;;;;;;5086426;28;20199;-73
2022/01/11 08:48:48;;;;;;;17.03;5.10;;;-0.70;99.90;;;;;;5066896;28;20183;-73
2022/01/11 08:51:14;;;;;;;3.47;3.27;;;-0.60;99.90;;;;;;5065879;28;20220;-73
2022/01/11 08:53:40;;;;;;;0.73;0.73;;;-0.60;99.90;;;;;;5055073;28;20192;-73
2022/01/11 08:56:06;;;;;;;6.27;5.77;;;-0.60;99.90;;;;;;5044715;28;20698;-73
2022/01/11 08:58:32;;;;;;;0.77;0.77;;;-0.60;99.90;;;;;;5062537;28;20207;-73
2022/01/11 09:00:57;;;;;;;3.37;3.17;;;-0.50;99.90;;;;;;5044998;28;20304;-73
2022/01/11 09:03:23;;;;;;;3.87;3.60;;;-0.50;99.90;;;;;;5063603;28;20198;-73
2022/01/11 09:05:52;;;;;;;6.10;3.70;;;-0.50;99.90;;;;;;5057648;28;20199;-72
2022/01/11 09:08:18;;;;;;;5.97;5.57;;;-0.50;99.90;;;;;;5044267;28;20687;-73
2022/01/11 09:10:44;;;;;;;3.43;3.20;;;-0.50;99.90;;;;;;5063312;28;20177;-74
2022/01/11 09:13:11;;;;;;;3.03;2.93;;;-0.40;99.90;;;;;;5074659;28;20203;-73
2022/01/11 09:15:36;;;;;;;3.43;3.13;;;-0.30;99.90;;;;;;5063452;28;20291;-73
2022/01/11 09:18:03;;;;;;;4.10;3.83;;;-0.40;99.90;;;;;;5061941;28;20221;-73
2022/01/11 09:20:29;;;;;;;5.77;5.37;;;-0.30;99.90;;;;;;5061705;28;20237;-72
2022/01/11 09:22:54;;;;;;;8.63;3.60;;;-0.20;99.90;;;;;;5043774;28;20228;-73
2022/01/11 09:25:20;;;;;;;3.10;2.57;;;-0.40;99.90;;;;;;5043690;28;20204;-73
2022/01/11 09:27:46;;;;;;;11.13;8.63;;;-0.40;99.90;;;;;;5062083;28;20552;-73
2022/01/11 09:30:14;;;;;;;13.90;5.13;;;-0.30;99.90;;;;;;5062210;28;20177;-74
2022/01/11 09:32:41;;;;;;;3.13;2.33;;;-0.40;99.90;;;;;;5061739;28;20204;-73
2022/01/11 09:35:09;;;;;;;4.60;3.37;;;-0.30;99.90;;;;;;5042760;28;20209;-73
2022/01/11 09:37:36;;;;;;;3.70;3.40;;;-0.40;99.90;;;;;;5059744;28;20187;-72
2022/01/11 09:40:04;;;;;;;8.07;7.23;;;-0.40;99.90;;;;;;5041859;28;20191;-72
2022/01/11 09:42:30;;;;;;;6.57;6.03;;;-0.40;99.90;;;;;;5041814;28;20201;-73
2022/01/11 09:44:56;;;;;;;6.93;6.47;;;-0.30;99.90;;;;;;5059511;28;20598;-73
2022/01/11 09:47:21;;;;;;;7.57;6.93;;;-0.30;99.90;;;;;;5059887;28;20184;-73
2022/01/11 09:49:47;;;;;;;2.83;2.70;;;-0.30;99.90;;;;;;5060237;28;20184;-73
2022/01/11 09:52:13;;;;;;;5.43;4.93;;;-0.30;99.90;;;;;;5060486;28;20208;-72
2022/01/11 09:54:42;;;;;;;2.70;2.47;;;-0.20;99.90;;;;;;5065085;28;20202;-72
2022/01/11 09:57:09;;;;;;;5.67;3.10;;;-0.20;99.90;;;;;;5062971;28;20178;-73
2022/01/11 09:59:36;;;;;;;5.93;3.00;;;-0.10;99.90;;;;;;5054661;28;20169;-72
2022/01/11 10:02:03;;;;;;;5.93;5.50;;;-0.20;99.90;;;;;;5065309;28;20251;-72
2022/01/11 10:04:32;;;;;;;27.10;6.63;;;-0.10;99.90;;;;;;5062722;28;20173;-73
2022/01/11 10:07:00;;;;;;;4.23;2.07;;;-0.10;99.90;;;;;;5058991;28;20700;-73
2022/01/11 10:09:29;;;;;;;7.87;5.90;;;-0.10;99.90;;;;;;5075784;28;20172;-72
2022/01/11 10:11:57;;;;;;;2.57;2.30;;;-0.10;99.90;;;;;;5075049;28;20635;-73
2022/01/11 10:14:32;;;;;;;4.97;4.63;;;0.00;99.90;;;;;;5047081;28;20208;-73
2022/01/11 10:17:08;;;;;;;6.67;6.23;;;0.10;99.90;;;;;;5058265;28;20234;-73
2022/01/11 10:19:37;;;;;;;1.77;1.67;;;0.20;99.90;;;;;;5058168;28;20290;-73
2022/01/11 10:22:06;;;;;;;3.97;3.77;;;0.20;99.90;;;;;;5075429;28;20204;-74
2022/01/11 10:24:44;;;;;;;1.53;1.43;;;0.10;99.90;;;;;;5057714;28;20271;-73
2022/01/11 10:27:25;;;;;;;5.53;3.03;;;0.10;99.90;;;;;;5075775;28;20188;-73
2022/01/11 10:29:53;;;;;;;8.13;7.40;;;0.10;99.90;;;;;;5075124;28;20242;-72
2022/01/11 10:32:35;;;;;;;7.83;4.93;;;0.10;99.90;;;;;;5074186;28;20207;-73
2022/01/11 10:35:44;;;;;;;6.73;3.73;;;0.10;99.90;;;;;;5074836;28;20602;-74
2022/01/11 10:38:11;;;;;;;5.50;4.27;;;0.20;99.90;;;;;;5075068;28;20686;-73
2022/01/11 10:40:45;;;;;;;5.60;5.30;;;0.20;99.90;;;;;;5074723;28;20259;-72
2022/01/11 10:43:14;;;;;;;3.10;2.93;;;0.20;99.90;;;;;;5059411;28;20224;-73
2022/01/11 10:45:49;;;;;;;3.87;3.67;;;0.20;99.90;;;;;;5077769;28;20184;-73
2022/01/11 10:48:21;;;;;;;7.13;6.50;;;0.20;99.90;;;;;;5055069;28;20659;-75
2022/01/11 10:50:53;;;;;;;3.93;2.57;;;0.20;99.90;;;;;;5072769;28;20586;-73
2022/01/11 10:53:28;;;;;;;4.57;4.17;;;0.20;99.90;;;;;;5072668;28;20196;-73
2022/01/11 10:55:59;;;;;;;5.50;5.10;;;0.30;99.90;;;;;;5054897;28;20211;-73
2022/01/11 10:58:28;;;;;;;10.40;4.60;;;0.30;99.90;;;;;;5073634;28;20249;-73
2022/01/11 11:00:55;;;;;;;7.83;6.57;;;0.40;99.90;;;;;;5073504;28;20185;-74
2022/01/11 11:03:23;;;;;;;12.03;4.90;;;0.40;99.90;;;;;;5055290;28;20180;-74
2022/01/11 11:05:56;;;;;;;9.13;4.40;;;0.60;99.90;;;;;;5071972;28;20183;-73
2022/01/11 11:08:25;;;;;;;3.13;2.93;;;0.60;99.90;;;;;;5045518;28;20188;-74
2022/01/11 11:10:59;;;;;;;6.27;5.63;;;0.60;99.90;;;;;;5074108;28;20237;-73
2022/01/11 11:13:28;;;;;;;4.80;4.57;;;0.60;99.90;;;;;;5064163;28;20196;-73
2022/01/11 11:16:21;;;;;;;5.43;5.07;;;0.60;99.90;;;;;;5036629;28;20232;-74
2022/01/11 11:18:57;;;;;;;6.40;5.97;;;0.60;99.90;;;;;;5042444;28;20276;-73
2022/01/11 11:21:32;;;;;;;2.30;2.20;;;0.80;99.90;;;;;;5054064;28;20690;-73
2022/01/11 11:24:02;;;;;;;5.33;4.83;;;0.90;99.90;;;;;;5036307;28;20173;-74
2022/01/11 11:26:37;;;;;;;15.93;7.07;;;0.80;99.90;;;;;;5054215;28;20185;-73
2022/01/11 11:29:04;;;;;;;24.43;7.20;;;0.80;99.90;;;;;;5036283;28;20181;-73
2022/01/11 11:31:31;;;;;;;8.67;3.63;;;0.90;99.90;;;;;;5053914;28;20193;-74
2022/01/11 11:33:57;;;;;;;4.53;2.60;;;1.00;99.90;;;;;;5054330;28;20174;-73
2022/01/11 11:36:23;;;;;;;16.93;8.20;;;0.90;99.90;;;;;;5036877;28;20311;-73
2022/01/11 11:38:55;;;;;;;4.60;4.30;;;1.00;99.90;;;;;;5054491;28;20182;-73
2022/01/11 11:41:22;;;;;;;9.67;7.30;;;1.00;99.90;;;;;;5054135;28;20204;-73
2022/01/11 11:44:25;;;;;;;6.80;6.23;;;1.20;99.90;;;;;;5039238;28;20691;-73
2022/01/11 11:46:52;;;;;;;13.37;5.03;;;1.40;99.90;;;;;;4958583;28;20184;-74
2022/01/11 11:49:51;;;;;;;13.00;5.93;;;1.40;99.90;;;;;;5039571;28;20239;-74
2022/01/11 11:52:24;;;;;;;5.00;4.70;;;1.50;99.90;;;;;;5057307;28;20209;-73
2022/01/11 11:54:58;;;;;;;10.70;8.20;;;1.50;99.90;;;;;;5040434;28;20307;-74
2022/01/11 11:57:27;;;;;;;5.27;4.97;;;1.50;99.90;;;;;;5057430;28;20643;-73
2022/01/11 11:59:59;;;;;;;4.27;4.03;;;1.50;99.90;;;;;;5039715;28;20226;-73
2022/01/11 12:02:43;;;;;;;11.83;7.50;;;1.60;99.90;;;;;;5057363;28;20571;-72
2022/01/11 12:05:11;;;;;;;8.10;4.70;;;1.90;99.90;;;;;;5066660;28;20590;-73
2022/01/11 12:07:44;;;;;;;7.80;6.30;;;1.80;99.90;;;;;;5061739;28;20185;-73
2022/01/11 12:10:25;;;;;;;10.70;6.83;;;1.70;99.90;;;;;;5059969;28;20185;-73
2022/01/11 12:12:54;;;;;;;12.33;4.30;;;1.60;99.90;;;;;;5054587;28;20208;-72
2022/01/11 12:15:22;;;;;;;8.10;7.33;;;1.80;99.90;;;;;;5039119;28;20212;-74
2022/01/11 12:18:10;;;;;;;10.17;5.90;;;1.80;99.90;;;;;;5039133;28;20215;-73
2022/01/11 12:20:51;;;;;;;13.30;11.37;;;1.90;99.90;;;;;;5056121;28;20210;-73
2022/01/11 12:23:38;;;;;;;15.83;9.17;;;1.80;99.90;;;;;;5049007;28;20176;-73
2022/01/11 12:26:16;;;;;;;5.07;3.07;;;1.90;99.90;;;;;;5056064;28;20189;-73
2022/01/11 12:29:06;;;;;;;8.67;8.17;;;2.00;99.90;;;;;;5056596;28;20687;-74
2022/01/11 12:31:50;;;;;;;6.47;5.97;;;2.50;99.90;;;;;;5038207;28;20638;-74
2022/01/11 12:34:15;;;;;;;5.33;3.37;;;3.50;99.90;;;;;;5038859;28;20243;-74
2022/01/11 12:36:50;;;;;;;13.00;6.33;;;4.10;99.90;;;;;;5056770;28;20187;-74
2022/01/11 12:39:16;;;;;;;18.63;5.93;;;4.60;99.90;;;;;;5056113;28;20665;-73
2022/01/11 12:41:42;;;;;;;27.43;5.97;;;5.10;99.90;;;;;;5056144;28;20253;-74
2022/01/11 12:44:26;;;;;;;11.63;6.57;;;5.20;99.90;;;;;;5038633;28;20673;-72
2022/01/11 12:47:07;;;;;;;11.67;3.80;;;4.90;99.90;;;;;;5056202;28;20210;-73
2022/01/11 12:49:36;;;;;;;9.83;6.47;;;4.80;99.90;;;;;;5038317;28;20184;-74
2022/01/11 12:52:14;;;;;;;4.90;4.60;;;4.70;99.90;;;;;;5058780;23;20230;-73